AFR647 FMEE-LFPG
Flight info
| Callsign | AFR647 |
|---|---|
| Flight time | N/A |
| Altitude | 32000 |
| Route | UVENA2J UVENA UN304 DENLI/N0506F330 UN304 APKAK/N0508F320 UN304 MOGDU/N0501F340 UN304 DWA DCT XADOX DCT KONET/N0497F350 UG650 RASKA/N0502F340 T513 EGMEG/N0497F350 G660 JDW/N0500F340 L677 DARAX/N0491F360 L677 CVO L617 MENKU Y661 ANTAR DCT KUGGI DCT YNN UL613 VJOSA DCT PAPIZ DCT AIOSA DCT IBENI/N0477F380 DCT IBUPU DCT TZO DCT PUNSA DCT UNKIR DCT GIVRI DCT TINIL |
| Aircraft | B77W/H-SDE2E3FGHIJ3J5M1P2RWXYZ/LB1D1 |
Departure
| Time | 2026-05-04 05:20 |
|---|---|
| Airport | Roland Garros Airport (FMEE) |
Arrival
| Time | N/A |
|---|---|
| Airport | Charles de Gaulle International Airport (LFPG) |
| Time | Latitude | Longitude | Altitude | Speed | Heading |
|---|---|---|---|---|---|
| 2026-05-04 05:02 | -20.89043 | 55.51172 | 85 ft | 0 kts | 206° |
| 2026-05-04 05:10 | -20.89029 | 55.51179 | 79 ft | 4 kts | 206° |
| 2026-05-04 05:10 | -20.89005 | 55.51192 | 79 ft | 4 kts | 206° |
| 2026-05-04 05:10 | -20.88985 | 55.51204 | 85 ft | 4 kts | 237° |
| 2026-05-04 05:10 | -20.88983 | 55.51226 | 85 ft | 4 kts | 296° |
| 2026-05-04 05:11 | -20.88992 | 55.51245 | 83 ft | 0 kts | 296° |
| 2026-05-04 05:15 | -20.88992 | 55.51243 | 79 ft | 1 kts | 296° |
| 2026-05-04 05:15 | -20.88984 | 55.51228 | 84 ft | 4 kts | 298° |
| 2026-05-04 05:15 | -20.88961 | 55.51196 | 85 ft | 7 kts | 319° |
| 2026-05-04 05:15 | -20.88909 | 55.51173 | 79 ft | 9 kts | 342° |
| 2026-05-04 05:16 | -20.88831 | 55.51146 | 61 ft | 17 kts | 342° |
| 2026-05-04 05:16 | -20.88752 | 55.51100 | 61 ft | 13 kts | 313° |
| 2026-05-04 05:16 | -20.88712 | 55.51018 | 65 ft | 13 kts | 285° |
| 2026-05-04 05:16 | -20.88693 | 55.50927 | 55 ft | 13 kts | 282° |
| 2026-05-04 05:17 | -20.88673 | 55.50831 | 54 ft | 13 kts | 282° |
| 2026-05-04 05:17 | -20.88653 | 55.50733 | 58 ft | 13 kts | 282° |
| 2026-05-04 05:17 | -20.88632 | 55.50636 | 53 ft | 13 kts | 282° |
| 2026-05-04 05:17 | -20.88599 | 55.50547 | 51 ft | 10 kts | 306° |
| 2026-05-04 05:18 | -20.88580 | 55.50501 | 52 ft | 5 kts | 262° |
| 2026-05-04 05:18 | -20.88604 | 55.50486 | 56 ft | 4 kts | 180° |
| 2026-05-04 05:18 | -20.88621 | 55.50505 | 50 ft | 4 kts | 109° |
| 2026-05-04 05:18 | -20.88620 | 55.50534 | 55 ft | 4 kts | 82° |
| 2026-05-04 05:19 | -20.88620 | 55.50556 | 56 ft | 0 kts | 97° |
| 2026-05-04 05:19 | -20.88620 | 55.50555 | 58 ft | 0 kts | 97° |
| 2026-05-04 05:19 | -20.88633 | 55.50631 | 55 ft | 35 kts | 100° |
| 2026-05-04 05:20 | -20.88746 | 55.51190 | 64 ft | 117 kts | 102° |
| 2026-05-04 05:20 | -20.88968 | 55.52288 | 50 ft | 188 kts | 102° |
| 2026-05-04 05:20 | -20.89274 | 55.53798 | 393 ft | 212 kts | 101° |
| 2026-05-04 05:20 | -20.89444 | 55.55284 | 1415 ft | 203 kts | 83° |
| 2026-05-04 05:21 | -20.88870 | 55.56741 | 1701 ft | 229 kts | 45° |
| 2026-05-04 05:21 | -20.87449 | 55.57574 | 1997 ft | 245 kts | 8° |
| 2026-05-04 05:21 | -20.85732 | 55.57343 | 2404 ft | 259 kts | 339° |
| 2026-05-04 05:21 | -20.84078 | 55.56490 | 2888 ft | 269 kts | 333° |
| 2026-05-04 05:22 | -20.82391 | 55.55571 | 3555 ft | 274 kts | 334° |
| 2026-05-04 05:22 | -20.80687 | 55.54643 | 4331 ft | 276 kts | 333° |
| 2026-05-04 05:22 | -20.78965 | 55.53709 | 5066 ft | 279 kts | 333° |
| 2026-05-04 05:22 | -20.77241 | 55.52780 | 5759 ft | 283 kts | 333° |
| 2026-05-04 05:23 | -20.75473 | 55.51830 | 6452 ft | 286 kts | 333° |
| 2026-05-04 05:23 | -20.73683 | 55.50870 | 7119 ft | 291 kts | 333° |
| 2026-05-04 05:23 | -20.71857 | 55.49896 | 7737 ft | 296 kts | 333° |
| 2026-05-04 05:23 | -20.70001 | 55.48909 | 8344 ft | 301 kts | 332° |
| 2026-05-04 05:24 | -20.68113 | 55.47907 | 8967 ft | 305 kts | 332° |
| 2026-05-04 05:24 | -20.66204 | 55.46898 | 9549 ft | 309 kts | 332° |
| 2026-05-04 05:24 | -20.64268 | 55.45876 | 10134 ft | 312 kts | 332° |
| 2026-05-04 05:24 | -20.62287 | 55.44829 | 10529 ft | 326 kts | 332° |
| 2026-05-04 05:25 | -20.60220 | 55.43734 | 10682 ft | 346 kts | 332° |
| 2026-05-04 05:25 | -20.57997 | 55.42559 | 10864 ft | 366 kts | 332° |
| 2026-05-04 05:25 | -20.55653 | 55.41321 | 11019 ft | 386 kts | 332° |
| 2026-05-04 05:25 | -20.53195 | 55.40024 | 11302 ft | 401 kts | 332° |
| 2026-05-04 05:26 | -20.50662 | 55.38690 | 11796 ft | 409 kts | 332° |
| 2026-05-04 05:26 | -20.48096 | 55.37342 | 12396 ft | 413 kts | 332° |
| 2026-05-04 05:26 | -20.45505 | 55.35982 | 13056 ft | 416 kts | 332° |
| 2026-05-04 05:26 | -20.42900 | 55.34615 | 13647 ft | 420 kts | 332° |
| 2026-05-04 05:27 | -20.40302 | 55.33249 | 14181 ft | 424 kts | 332° |
| 2026-05-04 05:28 | -20.21159 | 55.23208 | 17782 ft | 452 kts | 332° |
| 2026-05-04 05:29 | -20.18327 | 55.21724 | 18228 ft | 455 kts | 332° |
| 2026-05-04 05:29 | -20.15512 | 55.20250 | 18700 ft | 458 kts | 332° |
| 2026-05-04 05:29 | -20.12645 | 55.18748 | 19168 ft | 461 kts | 332° |
| 2026-05-04 05:29 | -20.09754 | 55.17235 | 19585 ft | 465 kts | 332° |
| 2026-05-04 05:31 | -19.88991 | 55.06388 | 22365 ft | 485 kts | 332° |
| 2026-05-04 05:31 | -19.85996 | 55.04826 | 22722 ft | 487 kts | 332° |
| 2026-05-04 05:32 | -19.82943 | 55.03234 | 23051 ft | 490 kts | 332° |
| 2026-05-04 05:32 | -19.79874 | 55.01635 | 23354 ft | 493 kts | 332° |
| 2026-05-04 05:32 | -19.76783 | 55.00024 | 23672 ft | 496 kts | 332° |
| 2026-05-04 05:33 | -19.70559 | 54.96785 | 24286 ft | 500 kts | 332° |
| 2026-05-04 05:33 | -19.67428 | 54.95157 | 24617 ft | 502 kts | 332° |
| 2026-05-04 05:33 | -19.64287 | 54.93524 | 24925 ft | 504 kts | 332° |
| 2026-05-04 05:33 | -19.61141 | 54.91889 | 25201 ft | 506 kts | 332° |
| 2026-05-04 05:34 | -19.58016 | 54.90268 | 25459 ft | 508 kts | 332° |
| 2026-05-04 05:34 | -19.54840 | 54.88617 | 25718 ft | 509 kts | 332° |
| 2026-05-04 05:34 | -19.51649 | 54.86959 | 25947 ft | 511 kts | 332° |
| 2026-05-04 05:34 | -19.48454 | 54.85301 | 26175 ft | 513 kts | 332° |
| 2026-05-04 05:35 | -19.45243 | 54.83636 | 26405 ft | 514 kts | 332° |
| 2026-05-04 05:35 | -19.42024 | 54.81970 | 26624 ft | 515 kts | 331° |
| 2026-05-04 05:35 | -19.38802 | 54.80300 | 26805 ft | 517 kts | 331° |
| 2026-05-04 05:35 | -19.35609 | 54.78646 | 26987 ft | 518 kts | 331° |
| 2026-05-04 05:36 | -19.32365 | 54.76965 | 27206 ft | 519 kts | 331° |
| 2026-05-04 05:36 | -19.29129 | 54.75291 | 27506 ft | 517 kts | 331° |
| 2026-05-04 05:36 | -19.25900 | 54.73623 | 27856 ft | 515 kts | 331° |
| 2026-05-04 05:36 | -19.22686 | 54.71963 | 28186 ft | 513 kts | 331° |
| 2026-05-04 05:37 | -19.19488 | 54.70309 | 28484 ft | 512 kts | 331° |
| 2026-05-04 05:37 | -19.16290 | 54.68658 | 28778 ft | 511 kts | 331° |
| 2026-05-04 05:37 | -19.13100 | 54.67012 | 29097 ft | 509 kts | 331° |
| 2026-05-04 05:38 | -19.06787 | 54.63754 | 29752 ft | 506 kts | 331° |
| 2026-05-04 05:38 | -19.03626 | 54.62126 | 30085 ft | 504 kts | 330° |
| 2026-05-04 05:38 | -19.00476 | 54.60501 | 30412 ft | 503 kts | 330° |
| 2026-05-04 05:38 | -18.97332 | 54.58879 | 30687 ft | 503 kts | 330° |
| 2026-05-04 05:39 | -18.94189 | 54.57260 | 30939 ft | 503 kts | 330° |
| 2026-05-04 05:39 | -18.87914 | 54.54030 | 31499 ft | 501 kts | 330° |
| 2026-05-04 05:39 | -18.84784 | 54.52421 | 31785 ft | 500 kts | 330° |
| 2026-05-04 05:40 | -18.78563 | 54.49222 | 32037 ft | 503 kts | 330° |
| 2026-05-04 05:40 | -18.72251 | 54.45979 | 32088 ft | 507 kts | 330° |
| 2026-05-04 05:41 | -18.65898 | 54.42717 | 32099 ft | 509 kts | 330° |
| 2026-05-04 05:41 | -18.59527 | 54.39458 | 32097 ft | 510 kts | 331° |
| 2026-05-04 05:42 | -18.53103 | 54.36370 | 32093 ft | 511 kts | 333° |
| 2026-05-04 05:42 | -18.46622 | 54.33338 | 32091 ft | 510 kts | 333° |
| 2026-05-04 05:43 | -18.40153 | 54.30288 | 32091 ft | 508 kts | 333° |
| 2026-05-04 05:45 | -18.14533 | 54.18140 | 32091 ft | 505 kts | 333° |
| 2026-05-04 05:47 | -17.88871 | 54.05980 | 32066 ft | 507 kts | 333° |
| 2026-05-04 05:47 | -17.82435 | 54.02931 | 32064 ft | 507 kts | 333° |
| 2026-05-04 05:48 | -17.76000 | 53.99887 | 32067 ft | 508 kts | 333° |
| 2026-05-04 05:48 | -17.69605 | 53.96865 | 32064 ft | 508 kts | 333° |
| 2026-05-04 05:49 | -17.63162 | 53.93821 | 32065 ft | 507 kts | 333° |
| 2026-05-04 05:49 | -17.56730 | 53.90785 | 32067 ft | 507 kts | 333° |
| 2026-05-04 05:51 | -17.31037 | 53.78681 | 32052 ft | 507 kts | 333° |
| 2026-05-04 05:52 | -17.24601 | 53.75654 | 32057 ft | 507 kts | 333° |
| 2026-05-04 05:52 | -17.18170 | 53.72634 | 32051 ft | 507 kts | 333° |
| 2026-05-04 05:54 | -16.92489 | 53.60592 | 32053 ft | 506 kts | 333° |
| 2026-05-04 05:55 | -16.86110 | 53.57607 | 32055 ft | 506 kts | 334° |
| 2026-05-04 05:55 | -16.79691 | 53.54604 | 32056 ft | 505 kts | 333° |
| 2026-05-04 05:56 | -16.73272 | 53.51602 | 32057 ft | 506 kts | 334° |
| 2026-05-04 05:56 | -16.66853 | 53.48605 | 32057 ft | 506 kts | 334° |
| 2026-05-04 05:57 | -16.60476 | 53.45629 | 32057 ft | 505 kts | 334° |
| 2026-05-04 05:57 | -16.54061 | 53.42638 | 32055 ft | 505 kts | 334° |
| 2026-05-04 05:58 | -16.47638 | 53.39644 | 32057 ft | 505 kts | 334° |
| 2026-05-04 05:58 | -16.41224 | 53.36658 | 32055 ft | 505 kts | 334° |
| 2026-05-04 05:59 | -16.34807 | 53.33671 | 32048 ft | 506 kts | 334° |
| 2026-05-04 05:59 | -16.28419 | 53.30697 | 32047 ft | 506 kts | 334° |
| 2026-05-04 06:00 | -16.21995 | 53.27709 | 32045 ft | 506 kts | 334° |
| 2026-05-04 06:00 | -16.15572 | 53.24722 | 32046 ft | 506 kts | 334° |
| 2026-05-04 06:01 | -16.09150 | 53.21742 | 32046 ft | 505 kts | 334° |
| 2026-05-04 06:03 | -15.83504 | 53.09843 | 32047 ft | 506 kts | 334° |
| 2026-05-04 06:05 | -15.54545 | 52.96451 | 32038 ft | 507 kts | 334° |
| 2026-05-04 06:06 | -15.49189 | 52.93982 | 32036 ft | 507 kts | 334° |
| 2026-05-04 06:06 | -15.41695 | 52.90524 | 32035 ft | 507 kts | 334° |
| 2026-05-04 06:07 | -15.35259 | 52.87559 | 32038 ft | 506 kts | 334° |
| 2026-05-04 06:07 | -15.28823 | 52.84594 | 32037 ft | 506 kts | 334° |
| 2026-05-04 06:08 | -15.23475 | 52.82133 | 32038 ft | 506 kts | 334° |
| 2026-05-04 06:08 | -15.15992 | 52.78689 | 32039 ft | 506 kts | 334° |
| 2026-05-04 06:09 | -15.09551 | 52.75727 | 32040 ft | 506 kts | 334° |
| 2026-05-04 06:11 | -14.84871 | 52.64402 | 32027 ft | 507 kts | 334° |
| 2026-05-04 06:13 | -14.59058 | 52.52587 | 32026 ft | 508 kts | 335° |
| 2026-05-04 06:14 | -14.36501 | 52.42284 | 32028 ft | 509 kts | 335° |
| 2026-05-04 06:15 | -14.30067 | 52.39348 | 32019 ft | 509 kts | 335° |
| 2026-05-04 06:15 | -14.23585 | 52.36394 | 32018 ft | 509 kts | 335° |
| 2026-05-04 06:16 | -14.17106 | 52.33443 | 32016 ft | 509 kts | 335° |
| 2026-05-04 06:16 | -14.10619 | 52.30493 | 32020 ft | 509 kts | 335° |
| 2026-05-04 06:17 | -14.04135 | 52.27544 | 32019 ft | 509 kts | 335° |
| 2026-05-04 06:17 | -13.97695 | 52.24616 | 32015 ft | 510 kts | 335° |
| 2026-05-04 06:18 | -13.91207 | 52.21667 | 32022 ft | 510 kts | 335° |
| 2026-05-04 06:20 | -13.65265 | 52.09898 | 32021 ft | 510 kts | 335° |
| 2026-05-04 06:21 | -13.49005 | 52.02536 | 32018 ft | 510 kts | 335° |
| 2026-05-04 06:22 | -13.42549 | 51.99618 | 32018 ft | 510 kts | 335° |
| 2026-05-04 06:25 | -12.97046 | 51.79096 | 32000 ft | 510 kts | 336° |
| 2026-05-04 06:26 | -12.90556 | 51.76179 | 32001 ft | 509 kts | 336° |
| 2026-05-04 06:26 | -12.84111 | 51.73279 | 32001 ft | 510 kts | 336° |
| 2026-05-04 06:27 | -12.67844 | 51.65971 | 32000 ft | 511 kts | 336° |
| 2026-05-04 06:28 | -12.61325 | 51.63045 | 32000 ft | 512 kts | 336° |
| 2026-05-04 06:28 | -12.54850 | 51.60138 | 32000 ft | 511 kts | 336° |
| 2026-05-04 06:29 | -12.48329 | 51.57216 | 32001 ft | 512 kts | 336° |
| 2026-05-04 06:29 | -12.41817 | 51.54299 | 31999 ft | 512 kts | 336° |
| 2026-05-04 06:30 | -12.35291 | 51.51376 | 32000 ft | 512 kts | 336° |
| 2026-05-04 06:30 | -12.28811 | 51.48476 | 31991 ft | 512 kts | 336° |
| 2026-05-04 06:31 | -12.22283 | 51.45555 | 31998 ft | 512 kts | 336° |
| 2026-05-04 06:31 | -12.15757 | 51.42637 | 31989 ft | 512 kts | 336° |
| 2026-05-04 06:33 | -11.89708 | 51.31008 | 31996 ft | 512 kts | 336° |
| 2026-05-04 06:34 | -11.83181 | 51.28100 | 31997 ft | 511 kts | 336° |
| 2026-05-04 06:34 | -11.76664 | 51.25192 | 31988 ft | 512 kts | 336° |
| 2026-05-04 06:36 | -11.50564 | 51.13578 | 31985 ft | 513 kts | 336° |
| 2026-05-04 06:37 | -11.44066 | 51.10690 | 31994 ft | 513 kts | 336° |
| 2026-05-04 06:37 | -11.37513 | 51.07778 | 31992 ft | 514 kts | 336° |
| 2026-05-04 06:38 | -11.30962 | 51.04868 | 31996 ft | 514 kts | 336° |
| 2026-05-04 06:40 | -11.04767 | 50.93250 | 31997 ft | 514 kts | 336° |
| 2026-05-04 06:40 | -10.98207 | 50.90345 | 31989 ft | 514 kts | 336° |
| 2026-05-04 06:41 | -10.91652 | 50.87441 | 31992 ft | 514 kts | 337° |
| 2026-05-04 06:41 | -10.85101 | 50.84542 | 31992 ft | 514 kts | 337° |
| 2026-05-04 06:42 | -10.78582 | 50.81659 | 31988 ft | 514 kts | 337° |
| 2026-05-04 06:44 | -10.52384 | 50.70083 | 31992 ft | 514 kts | 337° |
| 2026-05-04 06:44 | -10.45816 | 50.67185 | 31993 ft | 515 kts | 337° |
| 2026-05-04 06:45 | -10.39239 | 50.64283 | 31988 ft | 515 kts | 337° |
| 2026-05-04 06:45 | -10.32662 | 50.61384 | 31984 ft | 515 kts | 337° |
| 2026-05-04 06:46 | -10.26131 | 50.58507 | 31982 ft | 515 kts | 337° |
| 2026-05-04 06:46 | -10.19558 | 50.55611 | 31981 ft | 515 kts | 337° |
| 2026-05-04 06:48 | -9.93301 | 50.44057 | 31986 ft | 515 kts | 338° |
| 2026-05-04 06:50 | -9.67020 | 50.32512 | 31980 ft | 515 kts | 338° |
| 2026-05-04 06:51 | -9.60439 | 50.29622 | 31985 ft | 515 kts | 338° |
| 2026-05-04 06:51 | -9.53863 | 50.26737 | 31979 ft | 516 kts | 338° |
| 2026-05-04 06:52 | -9.47273 | 50.23847 | 31981 ft | 515 kts | 338° |
| 2026-05-04 06:52 | -9.40741 | 50.20983 | 31981 ft | 515 kts | 338° |
| 2026-05-04 06:53 | -9.34162 | 50.18101 | 31985 ft | 515 kts | 338° |
| 2026-05-04 06:53 | -9.27581 | 50.15219 | 31979 ft | 515 kts | 338° |
| 2026-05-04 06:54 | -9.20998 | 50.12336 | 31985 ft | 515 kts | 338° |
| 2026-05-04 06:54 | -9.14460 | 50.09475 | 31980 ft | 515 kts | 338° |
| 2026-05-04 06:55 | -9.07882 | 50.06598 | 31978 ft | 515 kts | 338° |
| 2026-05-04 06:55 | -9.01305 | 50.03721 | 31982 ft | 515 kts | 338° |
| 2026-05-04 06:57 | -8.75043 | 49.92249 | 31988 ft | 515 kts | 338° |
| 2026-05-04 06:58 | -8.68461 | 49.89375 | 31982 ft | 516 kts | 338° |
| 2026-05-04 06:58 | -8.61907 | 49.86517 | 32061 ft | 518 kts | 338° |
| 2026-05-04 06:59 | -8.58604 | 49.85077 | 32262 ft | 517 kts | 338° |
| 2026-05-04 06:59 | -8.55305 | 49.83639 | 32514 ft | 515 kts | 338° |
| 2026-05-04 06:59 | -8.52021 | 49.82206 | 32765 ft | 513 kts | 338° |
| 2026-05-04 06:59 | -8.48751 | 49.80782 | 32907 ft | 513 kts | 338° |
| 2026-05-04 07:01 | -8.22596 | 49.69388 | 32982 ft | 512 kts | 338° |
| 2026-05-04 07:02 | -8.16061 | 49.66545 | 32984 ft | 511 kts | 338° |
| 2026-05-04 07:02 | -8.09532 | 49.63706 | 32980 ft | 511 kts | 338° |
| 2026-05-04 07:03 | -8.03033 | 49.60880 | 32965 ft | 512 kts | 338° |
| 2026-05-04 07:03 | -7.96500 | 49.58039 | 32971 ft | 511 kts | 338° |
| 2026-05-04 07:04 | -7.89964 | 49.55200 | 32977 ft | 511 kts | 338° |
| 2026-05-04 07:04 | -7.83419 | 49.52358 | 32984 ft | 512 kts | 338° |
| 2026-05-04 07:05 | -7.76927 | 49.49538 | 32996 ft | 512 kts | 338° |
| 2026-05-04 07:05 | -7.70376 | 49.46694 | 32986 ft | 513 kts | 338° |
| 2026-05-04 07:06 | -7.60548 | 49.42429 | 32977 ft | 513 kts | 338° |
| 2026-05-04 07:07 | -7.53987 | 49.39585 | 32978 ft | 513 kts | 338° |
| 2026-05-04 07:08 | -7.31108 | 49.29668 | 33745 ft | 511 kts | 338° |
| 2026-05-04 07:09 | -7.27844 | 49.28254 | 33893 ft | 510 kts | 338° |
| 2026-05-04 07:09 | -7.21331 | 49.25434 | 33979 ft | 507 kts | 338° |
| 2026-05-04 07:10 | -7.14910 | 49.22653 | 33982 ft | 504 kts | 338° |
| 2026-05-04 07:12 | -6.89264 | 49.11559 | 33993 ft | 504 kts | 339° |
| 2026-05-04 07:12 | -6.82811 | 49.08767 | 33993 ft | 506 kts | 339° |
| 2026-05-04 07:13 | -6.76339 | 49.05968 | 34003 ft | 508 kts | 339° |
| 2026-05-04 07:13 | -6.69827 | 49.03153 | 34000 ft | 510 kts | 339° |
| 2026-05-04 07:14 | -6.53592 | 48.96134 | 33987 ft | 508 kts | 339° |
| 2026-05-04 07:15 | -6.47099 | 48.93331 | 33989 ft | 507 kts | 339° |
| 2026-05-04 07:15 | -6.40615 | 48.90532 | 33991 ft | 507 kts | 339° |
| 2026-05-04 07:16 | -6.34130 | 48.87733 | 33992 ft | 507 kts | 339° |
| 2026-05-04 07:16 | -6.27693 | 48.84955 | 33992 ft | 507 kts | 339° |
| 2026-05-04 07:17 | -6.21213 | 48.82159 | 33989 ft | 507 kts | 339° |
| 2026-05-04 07:17 | -6.14715 | 48.79353 | 33991 ft | 508 kts | 339° |
| 2026-05-04 07:18 | -6.08214 | 48.76550 | 33993 ft | 509 kts | 339° |
| 2026-05-04 07:18 | -6.01739 | 48.73758 | 33991 ft | 510 kts | 339° |
| 2026-05-04 07:19 | -5.95223 | 48.70952 | 33989 ft | 510 kts | 339° |
| 2026-05-04 07:19 | -5.88688 | 48.68135 | 33984 ft | 511 kts | 339° |
| 2026-05-04 07:20 | -5.82148 | 48.65317 | 33982 ft | 511 kts | 339° |
| 2026-05-04 07:20 | -5.75613 | 48.62504 | 33983 ft | 511 kts | 339° |
| 2026-05-04 07:22 | -5.49546 | 48.51286 | 33798 ft | 507 kts | 339° |
| 2026-05-04 07:23 | -5.46291 | 48.49886 | 33434 ft | 509 kts | 339° |
| 2026-05-04 07:23 | -5.43074 | 48.48502 | 33016 ft | 511 kts | 339° |
| 2026-05-04 07:23 | -5.39799 | 48.47096 | 32591 ft | 514 kts | 339° |
| 2026-05-04 07:23 | -5.36501 | 48.45679 | 32178 ft | 515 kts | 339° |
| 2026-05-04 07:24 | -5.33213 | 48.44264 | 31978 ft | 514 kts | 339° |
| 2026-05-04 07:24 | -5.29926 | 48.42848 | 31990 ft | 514 kts | 339° |
| 2026-05-04 07:24 | -5.23337 | 48.40015 | 31985 ft | 517 kts | 339° |
| 2026-05-04 07:26 | -4.96939 | 48.28673 | 31982 ft | 516 kts | 339° |
| 2026-05-04 07:27 | -4.90338 | 48.25841 | 31982 ft | 515 kts | 339° |
| 2026-05-04 07:27 | -4.83789 | 48.23030 | 31982 ft | 515 kts | 339° |
| 2026-05-04 07:28 | -4.77233 | 48.20213 | 31976 ft | 514 kts | 339° |
| 2026-05-04 07:28 | -4.70654 | 48.17391 | 31981 ft | 514 kts | 339° |
| 2026-05-04 07:29 | -4.64079 | 48.14571 | 31973 ft | 514 kts | 339° |
| 2026-05-04 07:29 | -4.57500 | 48.11748 | 31967 ft | 514 kts | 339° |
| 2026-05-04 07:30 | -4.50970 | 48.08950 | 31963 ft | 514 kts | 339° |
| 2026-05-04 07:30 | -4.44387 | 48.06126 | 31963 ft | 514 kts | 339° |
| 2026-05-04 07:31 | -4.37812 | 48.03307 | 31964 ft | 514 kts | 339° |
| 2026-05-04 07:33 | -4.11561 | 47.92054 | 31962 ft | 514 kts | 339° |
| 2026-05-04 07:33 | -4.04978 | 47.89229 | 31964 ft | 514 kts | 339° |
| 2026-05-04 07:34 | -3.98450 | 47.86428 | 31966 ft | 514 kts | 339° |
| 2026-05-04 07:34 | -3.91870 | 47.83607 | 31976 ft | 514 kts | 339° |
| 2026-05-04 07:35 | -3.85298 | 47.80788 | 31973 ft | 514 kts | 339° |
| 2026-05-04 07:35 | -3.78720 | 47.77968 | 31975 ft | 514 kts | 339° |
| 2026-05-04 07:36 | -3.72185 | 47.75165 | 31971 ft | 515 kts | 339° |
| 2026-05-04 07:38 | -3.45847 | 47.63880 | 31971 ft | 515 kts | 339° |
| 2026-05-04 07:38 | -3.39308 | 47.61077 | 31974 ft | 515 kts | 339° |
| 2026-05-04 07:39 | -3.32722 | 47.58255 | 31973 ft | 515 kts | 339° |
| 2026-05-04 07:39 | -3.26134 | 47.55436 | 31975 ft | 515 kts | 339° |
| 2026-05-04 07:40 | -3.19545 | 47.52614 | 31973 ft | 515 kts | 339° |
| 2026-05-04 07:40 | -3.12957 | 47.49792 | 31970 ft | 515 kts | 339° |
| 2026-05-04 07:41 | -3.06410 | 47.46989 | 31972 ft | 515 kts | 339° |
| 2026-05-04 07:41 | -2.99816 | 47.44167 | 31970 ft | 515 kts | 339° |
| 2026-05-04 07:42 | -2.93234 | 47.41352 | 31971 ft | 515 kts | 339° |
| 2026-05-04 07:42 | -2.86648 | 47.38539 | 31973 ft | 515 kts | 339° |
| 2026-05-04 07:43 | -2.80101 | 47.35739 | 31973 ft | 515 kts | 339° |
| 2026-05-04 07:43 | -2.73514 | 47.32923 | 31970 ft | 515 kts | 339° |
| 2026-05-04 07:44 | -2.66927 | 47.30106 | 31971 ft | 515 kts | 339° |
| 2026-05-04 07:44 | -2.60334 | 47.27287 | 31972 ft | 515 kts | 339° |
| 2026-05-04 07:45 | -2.53742 | 47.24471 | 31971 ft | 515 kts | 339° |
| 2026-05-04 07:45 | -2.47193 | 47.21673 | 31971 ft | 515 kts | 339° |
| 2026-05-04 07:46 | -2.40600 | 47.18854 | 31971 ft | 515 kts | 339° |
| 2026-05-04 07:46 | -2.34013 | 47.16038 | 31973 ft | 515 kts | 339° |
| 2026-05-04 07:47 | -2.27424 | 47.13223 | 31970 ft | 515 kts | 339° |
| 2026-05-04 07:49 | -2.01078 | 47.01972 | 31963 ft | 516 kts | 339° |
| 2026-05-04 07:49 | -1.94522 | 46.99172 | 31965 ft | 516 kts | 339° |
| 2026-05-04 07:50 | -1.87918 | 46.96350 | 31962 ft | 516 kts | 339° |
| 2026-05-04 07:50 | -1.81325 | 46.93535 | 31961 ft | 515 kts | 339° |
| 2026-05-04 07:51 | -1.74731 | 46.90722 | 31965 ft | 515 kts | 339° |
| 2026-05-04 07:51 | -1.68142 | 46.87909 | 31964 ft | 515 kts | 339° |
| 2026-05-04 07:52 | -1.61592 | 46.85112 | 31963 ft | 515 kts | 339° |
| 2026-05-04 07:52 | -1.55003 | 46.82298 | 31964 ft | 515 kts | 339° |
| 2026-05-04 07:54 | -1.28659 | 46.71055 | 31962 ft | 516 kts | 339° |
| 2026-05-04 07:55 | -1.22056 | 46.68237 | 31964 ft | 516 kts | 339° |
| 2026-05-04 07:55 | -1.15461 | 46.65421 | 31963 ft | 515 kts | 339° |
| 2026-05-04 07:56 | -1.08866 | 46.62611 | 31963 ft | 515 kts | 339° |
| 2026-05-04 07:56 | -1.02279 | 46.59808 | 31962 ft | 514 kts | 339° |
| 2026-05-04 07:57 | -0.95736 | 46.57024 | 31962 ft | 514 kts | 339° |
| 2026-05-04 07:57 | -0.89161 | 46.54223 | 31963 ft | 514 kts | 339° |
| 2026-05-04 07:58 | -0.82587 | 46.51420 | 31964 ft | 513 kts | 339° |
| 2026-05-04 07:58 | -0.76055 | 46.48640 | 31963 ft | 513 kts | 339° |
| 2026-05-04 07:59 | -0.69488 | 46.45846 | 31964 ft | 513 kts | 339° |
| 2026-05-04 07:59 | -0.62929 | 46.43051 | 31963 ft | 513 kts | 339° |
| 2026-05-04 08:00 | -0.56372 | 46.40257 | 31963 ft | 512 kts | 339° |
| 2026-05-04 08:02 | -0.30241 | 46.29131 | 31963 ft | 511 kts | 339° |
| 2026-05-04 08:02 | -0.23717 | 46.26353 | 31963 ft | 510 kts | 339° |
| 2026-05-04 08:03 | -0.17202 | 46.23573 | 32174 ft | 513 kts | 338° |
| 2026-05-04 08:03 | -0.13938 | 46.22155 | 32437 ft | 511 kts | 338° |
| 2026-05-04 08:03 | -0.10687 | 46.20727 | 32708 ft | 510 kts | 338° |
| 2026-05-04 08:04 | -0.07451 | 46.19302 | 32883 ft | 509 kts | 338° |
| 2026-05-04 08:04 | -0.04206 | 46.17873 | 32926 ft | 510 kts | 338° |
| 2026-05-04 08:04 | 0.02293 | 46.15017 | 32953 ft | 509 kts | 338° |
| 2026-05-04 08:05 | 0.08722 | 46.12201 | 32958 ft | 507 kts | 338° |
| 2026-05-04 08:05 | 0.15169 | 46.09374 | 32962 ft | 506 kts | 338° |
| 2026-05-04 08:06 | 0.21609 | 46.06553 | 32967 ft | 506 kts | 338° |
| 2026-05-04 08:06 | 0.28063 | 46.03725 | 32964 ft | 507 kts | 338° |
| 2026-05-04 08:08 | 0.53910 | 45.92398 | 32964 ft | 509 kts | 338° |
| 2026-05-04 08:11 | 0.83114 | 45.79843 | 32960 ft | 507 kts | 338° |
| 2026-05-04 08:11 | 0.92785 | 45.75687 | 32964 ft | 506 kts | 338° |
| 2026-05-04 08:12 | 0.99253 | 45.72909 | 32964 ft | 506 kts | 338° |
| 2026-05-04 08:12 | 1.05725 | 45.70129 | 32962 ft | 506 kts | 338° |
| 2026-05-04 08:13 | 1.12186 | 45.67352 | 32966 ft | 506 kts | 338° |
| 2026-05-04 08:13 | 1.18607 | 45.64591 | 32967 ft | 506 kts | 338° |
| 2026-05-04 08:14 | 1.25073 | 45.61811 | 32962 ft | 506 kts | 338° |
| 2026-05-04 08:16 | 1.50863 | 45.50729 | 32961 ft | 505 kts | 338° |
| 2026-05-04 08:16 | 1.57312 | 45.47958 | 32961 ft | 505 kts | 338° |
| 2026-05-04 08:17 | 1.63770 | 45.45185 | 32962 ft | 505 kts | 338° |
| 2026-05-04 08:17 | 1.70218 | 45.42412 | 32962 ft | 505 kts | 338° |
| 2026-05-04 08:19 | 1.95964 | 45.31338 | 32959 ft | 504 kts | 338° |
| 2026-05-04 08:20 | 2.02413 | 45.28565 | 32960 ft | 505 kts | 338° |
| 2026-05-04 08:20 | 2.05595 | 45.27168 | 33066 ft | 507 kts | 338° |
| 2026-05-04 08:20 | 2.08816 | 45.25737 | 33302 ft | 506 kts | 338° |
| 2026-05-04 08:21 | 2.12027 | 45.24305 | 33590 ft | 504 kts | 338° |
| 2026-05-04 08:21 | 2.15228 | 45.22878 | 33860 ft | 503 kts | 338° |
| 2026-05-04 08:21 | 2.21629 | 45.20032 | 33950 ft | 504 kts | 338° |
| 2026-05-04 08:22 | 2.28046 | 45.17189 | 33961 ft | 503 kts | 338° |
| 2026-05-04 08:24 | 2.53503 | 45.05912 | 33976 ft | 501 kts | 338° |
| 2026-05-04 08:24 | 2.59881 | 45.03082 | 33976 ft | 502 kts | 338° |
| 2026-05-04 08:25 | 2.66233 | 45.00263 | 33973 ft | 503 kts | 338° |
| 2026-05-04 08:25 | 2.72632 | 44.97428 | 33970 ft | 503 kts | 338° |
| 2026-05-04 08:27 | 2.98235 | 44.86075 | 33972 ft | 505 kts | 338° |
| 2026-05-04 08:28 | 3.04649 | 44.83229 | 33974 ft | 505 kts | 338° |
| 2026-05-04 08:28 | 3.11069 | 44.80380 | 33973 ft | 504 kts | 338° |
| 2026-05-04 08:29 | 3.17442 | 44.77553 | 33976 ft | 504 kts | 338° |
| 2026-05-04 08:31 | 3.43085 | 44.66169 | 33981 ft | 505 kts | 338° |
| 2026-05-04 08:33 | 3.68716 | 44.54784 | 33980 ft | 505 kts | 338° |
| 2026-05-04 08:35 | 3.94342 | 44.43396 | 33990 ft | 505 kts | 337° |
| 2026-05-04 08:35 | 4.00719 | 44.40560 | 33992 ft | 505 kts | 337° |
| 2026-05-04 08:37 | 4.23177 | 44.30570 | 34001 ft | 505 kts | 337° |
| 2026-05-04 08:38 | 4.29555 | 44.27733 | 34000 ft | 504 kts | 337° |
| 2026-05-04 08:38 | 4.35967 | 44.24879 | 34007 ft | 504 kts | 337° |
| 2026-05-04 08:40 | 4.61526 | 44.13496 | 34010 ft | 503 kts | 337° |
| 2026-05-04 08:41 | 4.67922 | 44.10646 | 34016 ft | 503 kts | 337° |
| 2026-05-04 08:41 | 4.74309 | 44.07800 | 34017 ft | 502 kts | 337° |
| 2026-05-04 08:42 | 4.80657 | 44.04971 | 34014 ft | 502 kts | 337° |
| 2026-05-04 08:42 | 4.87036 | 44.02126 | 34022 ft | 502 kts | 337° |
| 2026-05-04 08:43 | 4.93406 | 43.99284 | 34023 ft | 501 kts | 337° |
| 2026-05-04 08:43 | 4.99751 | 43.96406 | 34021 ft | 500 kts | 336° |
| 2026-05-04 08:44 | 5.06033 | 43.93538 | 34032 ft | 499 kts | 336° |
| 2026-05-04 08:46 | 5.31249 | 43.82066 | 34036 ft | 496 kts | 336° |
| 2026-05-04 08:46 | 5.37488 | 43.79226 | 34047 ft | 496 kts | 336° |
| 2026-05-04 08:47 | 5.43766 | 43.76367 | 34050 ft | 495 kts | 336° |
| 2026-05-04 08:47 | 5.50030 | 43.73515 | 34052 ft | 495 kts | 336° |
| 2026-05-04 08:48 | 5.56307 | 43.70656 | 34049 ft | 495 kts | 336° |
| 2026-05-04 08:48 | 5.62532 | 43.67820 | 34080 ft | 496 kts | 336° |
| 2026-05-04 08:48 | 5.65681 | 43.66384 | 34272 ft | 496 kts | 336° |
| 2026-05-04 08:49 | 5.68816 | 43.64955 | 34524 ft | 495 kts | 336° |
| 2026-05-04 08:50 | 5.86318 | 43.57012 | 35050 ft | 480 kts | 337° |
| 2026-05-04 08:50 | 5.90345 | 43.55185 | 34991 ft | 480 kts | 336° |
| 2026-05-04 08:51 | 5.96415 | 43.52425 | 34959 ft | 478 kts | 336° |
| 2026-05-04 08:51 | 6.02467 | 43.49677 | 34946 ft | 477 kts | 336° |
| 2026-05-04 08:52 | 6.07489 | 43.47394 | 34929 ft | 478 kts | 336° |
| 2026-05-04 08:52 | 6.13555 | 43.44633 | 34943 ft | 480 kts | 336° |
| 2026-05-04 08:54 | 6.38047 | 43.33487 | 34945 ft | 488 kts | 336° |
| 2026-05-04 08:55 | 6.45235 | 43.30213 | 34935 ft | 489 kts | 336° |
| 2026-05-04 08:55 | 6.50435 | 43.27844 | 34933 ft | 490 kts | 336° |
| 2026-05-04 09:01 | 7.15965 | 42.97982 | 34068 ft | 500 kts | 336° |
| 2026-05-04 09:01 | 7.22311 | 42.95095 | 34070 ft | 500 kts | 336° |
| 2026-05-04 09:02 | 7.28652 | 42.92207 | 34072 ft | 500 kts | 336° |
| 2026-05-04 09:02 | 7.34954 | 42.89333 | 34078 ft | 501 kts | 336° |
| 2026-05-04 09:03 | 7.41304 | 42.86437 | 34073 ft | 501 kts | 336° |
| 2026-05-04 09:03 | 7.47658 | 42.83544 | 34076 ft | 502 kts | 336° |
| 2026-05-04 09:04 | 7.54020 | 42.80639 | 34073 ft | 502 kts | 336° |
| 2026-05-04 09:04 | 7.60390 | 42.77736 | 34075 ft | 503 kts | 336° |
| 2026-05-04 09:05 | 7.66724 | 42.74845 | 34072 ft | 503 kts | 336° |
| 2026-05-04 09:05 | 7.73097 | 42.71936 | 34089 ft | 503 kts | 336° |
| 2026-05-04 09:06 | 7.79457 | 42.69031 | 34123 ft | 502 kts | 336° |
| 2026-05-04 09:08 | 8.04869 | 42.57415 | 34137 ft | 502 kts | 336° |
| 2026-05-04 09:08 | 8.11236 | 42.54503 | 34141 ft | 502 kts | 336° |
| 2026-05-04 09:09 | 8.17597 | 42.51591 | 34143 ft | 502 kts | 336° |
| 2026-05-04 09:09 | 8.23963 | 42.48677 | 34149 ft | 502 kts | 336° |
| 2026-05-04 09:10 | 8.30290 | 42.45784 | 34148 ft | 502 kts | 336° |
| 2026-05-04 09:10 | 8.36649 | 42.42873 | 34152 ft | 502 kts | 336° |
| 2026-05-04 09:11 | 8.43019 | 42.39956 | 34159 ft | 502 kts | 336° |
| 2026-05-04 09:11 | 8.49385 | 42.37050 | 34156 ft | 502 kts | 336° |
| 2026-05-04 09:12 | 8.55717 | 42.34166 | 34158 ft | 502 kts | 336° |
| 2026-05-04 09:14 | 8.81163 | 42.22546 | 34166 ft | 501 kts | 336° |
| 2026-05-04 09:14 | 8.87476 | 42.19658 | 34163 ft | 501 kts | 336° |
| 2026-05-04 09:15 | 8.93824 | 42.16755 | 34167 ft | 500 kts | 336° |
| 2026-05-04 09:15 | 9.00170 | 42.13852 | 34168 ft | 500 kts | 336° |
| 2026-05-04 09:17 | 9.28667 | 42.00800 | 34193 ft | 501 kts | 336° |
| 2026-05-04 09:18 | 9.34965 | 41.97910 | 34195 ft | 501 kts | 336° |
| 2026-05-04 09:18 | 9.41315 | 41.95001 | 34195 ft | 501 kts | 336° |
| 2026-05-04 09:19 | 9.47661 | 41.92092 | 34193 ft | 501 kts | 336° |
| 2026-05-04 09:19 | 9.54000 | 41.89178 | 34192 ft | 501 kts | 336° |
| 2026-05-04 09:20 | 9.60349 | 41.86262 | 34196 ft | 501 kts | 336° |
| 2026-05-04 09:20 | 9.66636 | 41.83349 | 34191 ft | 500 kts | 335° |
| 2026-05-04 09:21 | 9.72873 | 41.80226 | 34195 ft | 500 kts | 334° |
| 2026-05-04 09:21 | 9.79077 | 41.77043 | 34192 ft | 500 kts | 334° |
| 2026-05-04 09:22 | 9.85284 | 41.73879 | 34197 ft | 500 kts | 334° |
| 2026-05-04 09:22 | 9.91468 | 41.70753 | 34193 ft | 500 kts | 334° |
| 2026-05-04 09:23 | 9.97689 | 41.67616 | 34194 ft | 499 kts | 334° |
| 2026-05-04 09:23 | 10.03907 | 41.64478 | 34192 ft | 499 kts | 334° |
| 2026-05-04 09:25 | 10.28740 | 41.51929 | 34195 ft | 500 kts | 334° |
| 2026-05-04 09:26 | 10.34967 | 41.48778 | 34193 ft | 500 kts | 334° |
| 2026-05-04 09:26 | 10.41195 | 41.45624 | 34196 ft | 500 kts | 334° |
| 2026-05-04 09:27 | 10.47421 | 41.42469 | 34193 ft | 500 kts | 334° |
| 2026-05-04 09:27 | 10.53602 | 41.39339 | 34193 ft | 500 kts | 334° |
| 2026-05-04 09:28 | 10.59827 | 41.36184 | 34193 ft | 500 kts | 334° |
| 2026-05-04 09:28 | 10.66059 | 41.33024 | 34193 ft | 500 kts | 334° |
| 2026-05-04 09:29 | 10.72279 | 41.29867 | 34195 ft | 500 kts | 334° |
| 2026-05-04 09:29 | 10.78468 | 41.26725 | 34183 ft | 500 kts | 333° |
| 2026-05-04 09:30 | 10.84692 | 41.23564 | 34186 ft | 500 kts | 333° |
| 2026-05-04 09:30 | 10.90922 | 41.20399 | 34185 ft | 500 kts | 333° |
| 2026-05-04 09:31 | 10.97154 | 41.17234 | 34183 ft | 500 kts | 333° |
| 2026-05-04 09:31 | 11.03375 | 41.14067 | 34185 ft | 500 kts | 333° |
| 2026-05-04 09:32 | 11.09547 | 41.10925 | 34184 ft | 500 kts | 333° |
| 2026-05-04 09:34 | 11.34384 | 40.98275 | 34184 ft | 500 kts | 333° |
| 2026-05-04 09:34 | 11.40600 | 40.95104 | 34176 ft | 500 kts | 333° |
| 2026-05-04 09:35 | 11.46816 | 40.91932 | 34159 ft | 500 kts | 333° |
| 2026-05-04 09:35 | 11.53033 | 40.88759 | 34160 ft | 499 kts | 333° |
| 2026-05-04 09:37 | 11.77805 | 40.76093 | 34158 ft | 498 kts | 333° |
| 2026-05-04 09:38 | 11.84007 | 40.72921 | 34155 ft | 498 kts | 333° |
| 2026-05-04 09:38 | 11.90168 | 40.69767 | 34148 ft | 498 kts | 333° |
| 2026-05-04 09:39 | 11.96360 | 40.66591 | 34146 ft | 498 kts | 333° |
| 2026-05-04 09:39 | 12.02552 | 40.63417 | 34146 ft | 499 kts | 333° |
| 2026-05-04 09:40 | 12.08761 | 40.60235 | 34154 ft | 499 kts | 333° |
| 2026-05-04 09:40 | 12.14918 | 40.57074 | 34148 ft | 499 kts | 333° |
| 2026-05-04 09:42 | 12.39730 | 40.44322 | 34119 ft | 500 kts | 333° |
| 2026-05-04 09:43 | 12.45897 | 40.41052 | 34116 ft | 499 kts | 328° |
| 2026-05-04 09:43 | 12.51603 | 40.37018 | 34116 ft | 498 kts | 323° |
| 2026-05-04 09:44 | 12.57209 | 40.32837 | 34109 ft | 498 kts | 323° |
| 2026-05-04 09:46 | 12.79688 | 40.16297 | 34076 ft | 499 kts | 324° |
| 2026-05-04 09:46 | 12.85330 | 40.12148 | 34066 ft | 499 kts | 324° |
| 2026-05-04 09:47 | 12.90934 | 40.08023 | 34066 ft | 500 kts | 324° |
| 2026-05-04 09:49 | 13.13511 | 39.91398 | 34059 ft | 499 kts | 324° |
| 2026-05-04 09:51 | 13.33208 | 39.76854 | 34047 ft | 499 kts | 324° |
| 2026-05-04 09:51 | 13.38808 | 39.72716 | 34045 ft | 499 kts | 324° |
| 2026-05-04 09:52 | 13.44436 | 39.68552 | 34051 ft | 499 kts | 324° |
| 2026-05-04 09:52 | 13.50071 | 39.64382 | 34029 ft | 499 kts | 324° |
| 2026-05-04 09:53 | 13.55707 | 39.60211 | 34030 ft | 500 kts | 324° |
| 2026-05-04 09:53 | 13.61347 | 39.56030 | 34047 ft | 499 kts | 324° |
| 2026-05-04 09:54 | 13.66943 | 39.51883 | 34027 ft | 500 kts | 324° |
| 2026-05-04 09:54 | 13.72580 | 39.47702 | 34025 ft | 500 kts | 324° |
| 2026-05-04 09:55 | 13.78222 | 39.43511 | 34030 ft | 500 kts | 324° |
| 2026-05-04 09:55 | 13.83862 | 39.39321 | 34027 ft | 500 kts | 324° |
| 2026-05-04 09:56 | 13.89499 | 39.35134 | 34046 ft | 500 kts | 324° |
| 2026-05-04 09:56 | 13.95098 | 39.30971 | 34017 ft | 500 kts | 324° |
| 2026-05-04 09:57 | 14.00736 | 39.26773 | 34023 ft | 500 kts | 324° |
| 2026-05-04 09:57 | 14.06366 | 39.22581 | 34019 ft | 500 kts | 323° |
| 2026-05-04 09:58 | 14.11971 | 39.18405 | 34016 ft | 500 kts | 323° |
| 2026-05-04 09:58 | 14.17604 | 39.14208 | 34013 ft | 500 kts | 323° |
| 2026-05-04 10:00 | 14.40084 | 38.97419 | 34012 ft | 500 kts | 323° |
| 2026-05-04 10:02 | 14.62507 | 38.89881 | 34461 ft | 504 kts | 0° |
| 2026-05-04 10:04 | 14.87069 | 38.90051 | 35003 ft | 504 kts | 359° |
| 2026-05-04 10:04 | 14.94085 | 38.90056 | 34984 ft | 504 kts | 359° |
| 2026-05-04 10:05 | 15.01046 | 38.90063 | 34981 ft | 503 kts | 359° |
| 2026-05-04 10:05 | 15.08047 | 38.90076 | 34971 ft | 503 kts | 359° |
| 2026-05-04 10:06 | 15.15041 | 38.90082 | 34972 ft | 503 kts | 359° |
| 2026-05-04 10:06 | 15.22036 | 38.90092 | 34966 ft | 503 kts | 359° |
| 2026-05-04 10:08 | 15.46535 | 38.90728 | 34964 ft | 505 kts | 1° |
| 2026-05-04 10:08 | 15.53573 | 38.90998 | 34954 ft | 506 kts | 0° |
| 2026-05-04 10:09 | 15.60607 | 38.91249 | 34947 ft | 506 kts | 0° |
| 2026-05-04 10:09 | 15.67594 | 38.91497 | 34959 ft | 506 kts | 0° |
| 2026-05-04 10:10 | 15.74628 | 38.91746 | 34947 ft | 506 kts | 0° |
| 2026-05-04 10:10 | 15.81661 | 38.91997 | 34945 ft | 506 kts | 0° |
| 2026-05-04 10:11 | 15.88698 | 38.92249 | 34938 ft | 506 kts | 0° |
| 2026-05-04 10:11 | 15.95684 | 38.92498 | 34944 ft | 505 kts | 0° |
| 2026-05-04 10:12 | 16.02712 | 38.92752 | 34939 ft | 505 kts | 0° |
| 2026-05-04 10:12 | 16.09746 | 38.93005 | 34929 ft | 506 kts | 0° |
| 2026-05-04 10:13 | 16.16790 | 38.93252 | 34942 ft | 507 kts | 0° |
| 2026-05-04 10:13 | 16.23852 | 38.93506 | 34935 ft | 508 kts | 0° |
| 2026-05-04 10:14 | 16.30867 | 38.93760 | 34935 ft | 508 kts | 0° |
| 2026-05-04 10:16 | 16.59133 | 38.94776 | 34925 ft | 509 kts | 0° |
| 2026-05-04 10:16 | 16.66161 | 38.95029 | 34928 ft | 509 kts | 0° |
| 2026-05-04 10:17 | 16.73233 | 38.95285 | 34929 ft | 509 kts | 0° |
| 2026-05-04 10:19 | 17.01505 | 38.96306 | 34999 ft | 508 kts | 0° |
| 2026-05-04 10:19 | 17.08555 | 38.96561 | 35071 ft | 507 kts | 0° |
| 2026-05-04 10:20 | 17.15627 | 38.96817 | 35077 ft | 509 kts | 0° |
| 2026-05-04 10:20 | 17.22710 | 38.97074 | 35077 ft | 510 kts | 0° |
| 2026-05-04 10:21 | 17.29758 | 38.97328 | 35072 ft | 511 kts | 0° |
| 2026-05-04 10:21 | 17.36868 | 38.97588 | 35079 ft | 512 kts | 360° |
| 2026-05-04 10:22 | 17.47555 | 38.97976 | 35069 ft | 512 kts | 0° |
| 2026-05-04 10:23 | 17.54673 | 38.98233 | 35079 ft | 512 kts | 360° |
| 2026-05-04 10:25 | 17.83073 | 38.99267 | 35021 ft | 512 kts | 360° |
| 2026-05-04 10:25 | 17.90199 | 38.99530 | 35021 ft | 512 kts | 360° |
| 2026-05-04 10:26 | 17.97259 | 38.99785 | 35026 ft | 512 kts | 360° |
| 2026-05-04 10:26 | 18.04379 | 39.00045 | 35025 ft | 512 kts | 359° |
| 2026-05-04 10:27 | 18.11494 | 39.00305 | 35029 ft | 512 kts | 359° |
| 2026-05-04 10:27 | 18.18623 | 39.00574 | 35027 ft | 512 kts | 0° |
| 2026-05-04 10:28 | 18.25694 | 39.00950 | 35028 ft | 513 kts | 1° |
| 2026-05-04 10:28 | 18.32820 | 39.01370 | 35075 ft | 512 kts | 0° |
| 2026-05-04 10:29 | 18.39922 | 39.01775 | 35190 ft | 511 kts | 0° |
| 2026-05-04 10:29 | 18.47025 | 39.02167 | 35195 ft | 512 kts | 0° |
| 2026-05-04 10:30 | 18.54102 | 39.02557 | 35198 ft | 513 kts | 0° |
| 2026-05-04 10:30 | 18.61235 | 39.02950 | 35193 ft | 514 kts | 0° |
| 2026-05-04 10:31 | 18.68388 | 39.03345 | 35110 ft | 516 kts | 0° |
| 2026-05-04 10:32 | 18.93377 | 39.04734 | 35025 ft | 512 kts | 0° |
| 2026-05-04 10:33 | 19.00499 | 39.05127 | 35021 ft | 512 kts | 0° |
| 2026-05-04 10:33 | 19.07610 | 39.05517 | 35022 ft | 511 kts | 359° |
| 2026-05-04 10:34 | 19.14662 | 39.05069 | 35009 ft | 506 kts | 348° |
| 2026-05-04 10:34 | 19.21444 | 39.03403 | 35006 ft | 503 kts | 341° |
| 2026-05-04 10:35 | 19.28194 | 39.01415 | 34984 ft | 504 kts | 341° |
| 2026-05-04 10:35 | 19.34962 | 38.99440 | 34983 ft | 505 kts | 341° |
| 2026-05-04 10:36 | 19.41707 | 38.97505 | 34979 ft | 506 kts | 342° |
| 2026-05-04 10:36 | 19.48505 | 38.95569 | 34972 ft | 506 kts | 342° |
| 2026-05-04 10:37 | 19.55310 | 38.93627 | 34964 ft | 507 kts | 341° |
| 2026-05-04 10:37 | 19.62118 | 38.91680 | 34955 ft | 507 kts | 341° |
| 2026-05-04 10:39 | 19.85838 | 38.84883 | 34933 ft | 505 kts | 341° |
| 2026-05-04 10:40 | 19.92614 | 38.82937 | 34931 ft | 504 kts | 341° |
| 2026-05-04 10:40 | 19.99391 | 38.80991 | 34923 ft | 504 kts | 341° |
| 2026-05-04 10:41 | 20.06117 | 38.79058 | 34905 ft | 504 kts | 341° |
| 2026-05-04 10:41 | 20.12886 | 38.77107 | 34893 ft | 504 kts | 341° |
| 2026-05-04 10:42 | 20.19661 | 38.75153 | 34882 ft | 504 kts | 341° |
| 2026-05-04 10:42 | 20.26440 | 38.73198 | 34881 ft | 505 kts | 341° |
| 2026-05-04 10:43 | 20.33168 | 38.71256 | 34877 ft | 505 kts | 341° |
| 2026-05-04 10:45 | 20.60291 | 38.63409 | 34907 ft | 505 kts | 340° |
| 2026-05-04 10:45 | 20.67033 | 38.61453 | 34899 ft | 506 kts | 340° |
| 2026-05-04 10:46 | 20.73827 | 38.59481 | 34898 ft | 506 kts | 340° |
| 2026-05-04 10:46 | 20.80605 | 38.57524 | 34880 ft | 504 kts | 343° |
| 2026-05-04 10:46 | 20.84113 | 38.57092 | 34889 ft | 513 kts | 358° |
| 2026-05-04 10:47 | 20.87668 | 38.57649 | 34895 ft | 522 kts | 12° |
| 2026-05-04 10:47 | 20.91005 | 38.59102 | 34880 ft | 529 kts | 28° |
| 2026-05-04 10:47 | 20.94152 | 38.61229 | 34912 ft | 529 kts | 30° |
| 2026-05-04 10:49 | 21.19441 | 38.78081 | 34874 ft | 541 kts | 28° |
| 2026-05-04 10:50 | 21.25817 | 38.82275 | 34870 ft | 542 kts | 28° |
| 2026-05-04 10:52 | 21.51420 | 38.99189 | 34863 ft | 538 kts | 28° |
| 2026-05-04 10:52 | 21.57748 | 39.03376 | 34860 ft | 537 kts | 28° |
| 2026-05-04 10:54 | 21.81096 | 39.08225 | 34877 ft | 498 kts | 332° |
| 2026-05-04 10:54 | 21.84329 | 39.06738 | 34863 ft | 500 kts | 331° |
| 2026-05-04 10:56 | 22.10267 | 38.95218 | 34859 ft | 506 kts | 332° |
| 2026-05-04 10:57 | 22.16725 | 38.92388 | 34858 ft | 504 kts | 332° |
| 2026-05-04 10:57 | 22.23209 | 38.89538 | 34859 ft | 502 kts | 332° |